Time,TemperatureF,DewpointF,PressureIn,WindDirection,WindDirectionDegrees,WindSpeedMPH,WindSpeedGustMPH,Humidity,HourlyPrecipIn,Conditions,Clouds,dailyrainin,SoftwareType,DateUTC
2013-08-26 00:05:00,75.9,73.7,30.17,NE,39,1.0,6.0,93,0.00,,,0.00,Wunderground v.1.15,2013-08-26 04:05:00,
2013-08-26 00:10:00,75.9,73.7,30.17,NE,36,2.0,2.0,93,0.00,,,0.00,Wunderground v.1.15,2013-08-26 04:10:00,
2013-08-26 00:14:00,75.9,73.7,30.16,NE,49,2.0,6.0,93,0.00,,,0.00,Wunderground v.1.15,2013-08-26 04:14:00,
2013-08-26 00:20:00,75.8,73.6,30.16,NNE,30,1.0,1.0,93,0.00,,,0.00,Wunderground v.1.15,2013-08-26 04:20:00,
2013-08-26 00:30:00,75.7,73.5,30.16,ENE,58,1.0,2.0,93,0.00,,,0.00,Wunderground v.1.15,2013-08-26 04:30:00,
2013-08-26 00:40:00,75.7,73.5,30.15,NE,44,1.0,1.0,93,0.00,,,0.00,Wunderground v.1.15,2013-08-26 04:40:00,
2013-08-26 00:50:00,75.4,73.6,30.16,ENE,71,0.0,0.0,94,0.00,,,0.00,Wunderground v.1.15,2013-08-26 04:50:00,
2013-08-26 01:00:00,75.2,73.4,30.16,NE,47,0.0,0.0,94,0.00,,,0.00,Wunderground v.1.15,2013-08-26 05:00:00,
2013-08-26 01:10:00,75.1,73.6,30.15,NNE,23,0.0,4.0,95,0.00,,,0.00,Wunderground v.1.15,2013-08-26 05:10:00,
2013-08-26 01:20:00,75.1,73.6,30.16,NNE,13,0.0,4.0,95,0.00,,,0.00,Wunderground v.1.15,2013-08-26 05:20:00,
2013-08-26 01:25:00,75.1,73.6,30.16,NNE,23,0.0,4.0,95,0.00,,,0.00,Wunderground v.1.15,2013-08-26 05:25:00,
2013-08-26 01:35:00,75.0,73.5,30.15,NE,36,0.0,0.0,95,0.00,,,0.00,Wunderground v.1.15,2013-08-26 05:35:00,
2013-08-26 01:45:00,74.9,73.4,30.15,NNE,26,0.0,2.0,95,0.00,,,0.00,Wunderground v.1.15,2013-08-26 05:45:00,
2013-08-26 01:50:00,74.9,73.7,30.15,NNE,18,1.0,1.0,96,0.00,,,0.00,Wunderground v.1.15,2013-08-26 05:50:00,
2013-08-26 02:00:00,75.0,73.8,30.14,NNW,344,1.0,1.0,96,0.00,,,0.00,Wunderground v.1.15,2013-08-26 06:00:00,
2013-08-26 02:10:00,74.9,73.7,30.13,NE,35,0.0,4.0,96,0.00,,,0.00,Wunderground v.1.15,2013-08-26 06:10:00,
2013-08-26 02:20:00,74.9,73.7,30.13,NE,43,1.0,4.0,96,0.00,,,0.00,Wunderground v.1.15,2013-08-26 06:20:00,
2013-08-26 02:29:00,74.7,73.5,30.13,NE,49,0.0,0.0,96,0.00,,,0.00,Wunderground v.1.15,2013-08-26 06:29:00,
2013-08-26 02:35:00,74.7,73.5,30.13,NNE,31,0.0,0.0,96,0.00,,,0.00,Wunderground v.1.15,2013-08-26 06:35:00,
2013-08-26 02:45:00,74.6,73.4,30.13,NE,52,0.0,0.0,96,0.00,,,0.00,Wunderground v.1.15,2013-08-26 06:45:00,
2013-08-26 02:55:00,74.4,73.2,30.12,NW,321,0.0,0.0,96,0.00,,,0.00,Wunderground v.1.15,2013-08-26 06:55:00,
2013-08-26 03:05:00,74.3,73.1,30.11,NE,43,0.0,3.0,96,0.00,,,0.00,Wunderground v.1.15,2013-08-26 07:05:00,
2013-08-26 03:15:00,74.2,73.0,30.11,NE,44,0.0,3.0,96,0.00,,,0.00,Wunderground v.1.15,2013-08-26 07:15:00,
2013-08-26 03:20:00,74.2,73.0,30.11,NNE,23,0.0,3.0,96,0.00,,,0.00,Wunderground v.1.15,2013-08-26 07:20:00,
2013-08-26 03:30:00,74.1,73.2,30.11,NNW,328,0.0,0.0,97,0.00,,,0.00,Wunderground v.1.15,2013-08-26 07:30:00,
2013-08-26 03:40:00,73.9,73.0,30.11,NNE,19,0.0,0.0,97,0.00,,,0.00,Wunderground v.1.15,2013-08-26 07:40:00,
2013-08-26 03:50:00,73.9,73.0,30.11,NE,54,0.0,1.0,97,0.00,,,0.00,Wunderground v.1.15,2013-08-26 07:50:00,
2013-08-26 03:59:00,73.9,73.0,30.11,NE,51,0.0,0.0,97,0.00,,,0.00,Wunderground v.1.15,2013-08-26 07:59:00,
2013-08-26 04:05:00,73.9,73.0,30.11,NNE,12,0.0,3.0,97,0.00,,,0.00,Wunderground v.1.15,2013-08-26 08:05:00,
2013-08-26 04:15:00,73.7,72.8,30.12,NNW,347,0.0,3.0,97,0.00,,,0.00,Wunderground v.1.15,2013-08-26 08:15:00,
2013-08-26 04:25:00,73.6,72.7,30.12,NNW,347,0.0,3.0,97,0.00,,,0.00,Wunderground v.1.15,2013-08-26 08:25:00,
2013-08-26 04:35:00,73.5,72.6,30.12,NNW,346,0.0,0.0,97,0.00,,,0.00,Wunderground v.1.15,2013-08-26 08:35:00,
2013-08-26 04:45:00,73.5,72.9,30.12,NNE,29,0.0,0.0,98,0.00,,,0.00,Wunderground v.1.15,2013-08-26 08:45:00,
2013-08-26 04:50:00,73.5,72.9,30.12,NNE,29,0.0,0.0,98,0.00,,,0.00,Wunderground v.1.15,2013-08-26 08:50:00,
2013-08-26 05:00:00,73.5,72.6,30.12,NW,304,0.0,0.0,97,0.00,,,0.00,Wunderground v.1.15,2013-08-26 09:00:00,
2013-08-26 05:10:00,73.2,72.3,30.11,NW,305,0.0,2.0,97,0.00,,,0.00,Wunderground v.1.15,2013-08-26 09:10:00,
2013-08-26 05:15:00,73.0,72.1,30.11,NW,305,0.0,2.0,97,0.00,,,0.00,Wunderground v.1.15,2013-08-26 09:15:00,
2013-08-26 05:25:00,72.7,71.8,30.11,NW,304,0.0,2.0,97,0.00,,,0.00,Wunderground v.1.15,2013-08-26 09:25:00,
2013-08-26 05:35:00,72.6,72.0,30.12,NW,305,0.0,0.0,98,0.00,,,0.00,Wunderground v.1.15,2013-08-26 09:35:00,
2013-08-26 05:45:00,72.7,72.1,30.12,NW,304,0.0,0.0,98,0.00,,,0.00,Wunderground v.1.15,2013-08-26 09:45:00,
2013-08-26 05:55:00,73.0,72.4,30.12,ENE,58,0.0,0.0,98,0.00,,,0.00,Wunderground v.1.15,2013-08-26 09:55:00,
2013-08-26 06:05:00,73.0,72.4,30.12,NE,51,0.0,1.0,98,0.00,,,0.00,Wunderground v.1.15,2013-08-26 10:05:00,
2013-08-26 06:15:00,72.9,72.3,30.12,NE,51,0.0,1.0,98,0.00,,,0.00,Wunderground v.1.15,2013-08-26 10:15:00,
2013-08-26 06:20:00,72.9,72.3,30.12,NE,51,0.0,1.0,98,0.00,,,0.00,Wunderground v.1.15,2013-08-26 10:20:00,
2013-08-26 06:30:00,72.8,72.2,30.12,NE,51,0.0,0.0,98,0.00,,,0.00,Wunderground v.1.15,2013-08-26 10:30:00,
2013-08-26 06:40:00,72.7,72.1,30.12,NE,51,0.0,0.0,98,0.00,,,0.00,Wunderground v.1.15,2013-08-26 10:40:00,
2013-08-26 06:45:00,72.6,72.0,30.12,NE,51,0.0,0.0,98,0.00,,,0.00,Wunderground v.1.15,2013-08-26 10:45:00,
2013-08-26 06:55:00,72.6,72.0,30.12,NE,51,0.0,0.0,98,0.00,,,0.00,Wunderground v.1.15,2013-08-26 10:55:00,
2013-08-26 07:05:00,72.7,72.1,30.12,North,354,0.0,1.0,98,0.00,,,0.00,Wunderground v.1.15,2013-08-26 11:05:00,
2013-08-26 07:15:00,72.8,72.2,30.12,North,354,0.0,1.0,98,0.00,,,0.00,Wunderground v.1.15,2013-08-26 11:15:00,
2013-08-26 07:25:00,72.8,72.2,30.13,North,354,0.0,1.0,98,0.00,,,0.00,Wunderground v.1.15,2013-08-26 11:25:00,
2013-08-26 07:35:00,72.9,72.3,30.13,NW,321,0.0,0.0,98,0.00,,,0.00,Wunderground v.1.15,2013-08-26 11:35:00,
2013-08-26 07:45:00,73.1,72.8,30.13,NW,316,0.0,0.0,99,0.00,,,0.00,Wunderground v.1.15,2013-08-26 11:45:00,
2013-08-26 07:55:00,73.4,73.1,30.13,NW,322,0.0,0.0,99,0.00,,,0.00,Wunderground v.1.15,2013-08-26 11:55:00,
2013-08-26 08:05:00,73.7,73.1,30.13,NNW,327,0.0,0.0,98,0.00,,,0.00,Wunderground v.1.15,2013-08-26 12:05:00,
2013-08-26 08:15:00,74.0,73.4,30.13,NNW,341,0.0,0.0,98,0.00,,,0.00,Wunderground v.1.15,2013-08-26 12:15:00,
2013-08-26 08:25:00,74.5,73.9,30.13,NNW,338,0.0,0.0,98,0.00,,,0.00,Wunderground v.1.15,2013-08-26 12:25:00,
2013-08-26 08:35:00,74.8,74.2,30.13,NNW,335,0.0,0.0,98,0.00,,,0.00,Wunderground v.1.15,2013-08-26 12:35:00,
2013-08-26 08:45:00,75.1,74.5,30.14,NW,316,0.0,1.0,98,0.00,,,0.00,Wunderground v.1.15,2013-08-26 12:45:00,
2013-08-26 08:55:00,75.8,75.2,30.14,NE,43,1.0,1.0,98,0.00,,,0.00,Wunderground v.1.15,2013-08-26 12:55:00,
2013-08-26 09:05:00,76.7,75.8,30.14,NE,43,1.0,3.0,97,0.00,,,0.00,Wunderground v.1.15,2013-08-26 13:05:00,
2013-08-26 09:14:00,77.8,76.6,30.14,NNW,341,1.0,2.0,96,0.00,,,0.00,Wunderground v.1.15,2013-08-26 13:14:00,
2013-08-26 09:20:00,78.2,76.6,30.14,NNW,328,1.0,2.0,95,0.00,,,0.00,Wunderground v.1.15,2013-08-26 13:20:00,
2013-08-26 09:30:00,79.4,77.2,30.14,ENE,58,1.0,2.0,93,0.00,,,0.00,Wunderground v.1.15,2013-08-26 13:30:00,
2013-08-26 09:39:00,81.0,77.4,30.14,NW,318,1.0,1.0,89,0.00,,,0.00,Wunderground v.1.15,2013-08-26 13:39:00,
2013-08-26 09:45:00,81.7,77.8,30.14,NNE,29,1.0,1.0,88,0.00,,,0.00,Wunderground v.1.15,2013-08-26 13:45:00,
2013-08-26 09:55:00,82.8,77.8,30.14,NNW,330,2.0,2.0,85,0.00,,,0.00,Wunderground v.1.15,2013-08-26 13:55:00,
2013-08-26 10:05:00,83.6,77.5,30.13,NE,50,2.0,4.0,82,0.00,,,0.00,Wunderground v.1.15,2013-08-26 14:05:00,
2013-08-26 10:15:00,83.3,77.2,30.14,NNE,18,2.0,4.0,82,0.00,,,0.00,Wunderground v.1.15,2013-08-26 14:15:00,
2013-08-26 10:24:00,83.1,77.0,30.14,NE,55,3.0,4.0,82,0.00,,,0.00,Wunderground v.1.15,2013-08-26 14:24:00,
2013-08-26 10:30:00,83.6,77.5,30.14,NE,41,3.0,3.0,82,0.00,,,0.00,Wunderground v.1.15,2013-08-26 14:30:00,
2013-08-26 10:40:00,84.3,77.5,30.14,NE,38,3.0,4.0,80,0.00,,,0.00,Wunderground v.1.15,2013-08-26 14:40:00,
2013-08-26 10:50:00,84.7,77.1,30.14,NNE,26,4.0,4.0,78,0.00,,,0.00,Wunderground v.1.15,2013-08-26 14:50:00,
2013-08-26 11:00:00,84.8,76.0,30.14,NE,44,5.0,5.0,75,0.00,,,0.00,Wunderground v.1.15,2013-08-26 15:00:00,
2013-08-26 11:10:00,85.1,76.7,30.14,NE,54,6.0,7.0,76,0.00,,,0.00,Wunderground v.1.15,2013-08-26 15:10:00,
2013-08-26 11:20:00,86.1,77.2,30.13,NE,37,5.0,5.0,75,0.00,,,0.00,Wunderground v.1.15,2013-08-26 15:20:00,
2013-08-26 11:30:00,87.4,76.8,30.14,NE,40,5.0,5.0,71,0.00,,,0.00,Wunderground v.1.15,2013-08-26 15:30:00,
2013-08-26 11:35:00,88.0,77.8,30.14,NE,44,4.0,5.0,72,0.00,,,0.00,Wunderground v.1.15,2013-08-26 15:35:00,
2013-08-26 11:45:00,88.1,76.2,30.13,ENE,57,4.0,4.0,68,0.00,,,0.00,Wunderground v.1.15,2013-08-26 15:45:00,
2013-08-26 11:55:00,87.6,77.0,30.14,ENE,60,7.0,9.0,71,0.00,,,0.00,Wunderground v.1.15,2013-08-26 15:55:00,
2013-08-26 12:05:00,88.1,76.6,30.13,North,360,4.0,11.0,69,0.00,,,0.00,Wunderground v.1.15,2013-08-26 16:05:00,
2013-08-26 12:14:00,88.0,77.0,30.13,NE,54,4.0,8.0,70,0.00,,,0.00,Wunderground v.1.15,2013-08-26 16:14:00,
2013-08-26 12:20:00,88.1,76.6,30.13,ENE,77,4.0,11.0,69,0.00,,,0.00,Wunderground v.1.15,2013-08-26 16:20:00,
2013-08-26 12:30:00,88.3,75.9,30.12,NNE,32,4.0,4.0,67,0.00,,,0.00,Wunderground v.1.15,2013-08-26 16:30:00,
2013-08-26 12:40:00,87.6,76.2,30.12,NNE,33,4.0,6.0,69,0.00,,,0.00,Wunderground v.1.15,2013-08-26 16:40:00,
2013-08-26 12:50:00,88.9,76.5,30.11,NE,36,5.0,5.0,67,0.00,,,0.00,Wunderground v.1.15,2013-08-26 16:50:00,
2013-08-26 13:00:00,88.4,76.9,30.11,ENE,65,4.0,6.0,69,0.00,,,0.00,Wunderground v.1.15,2013-08-26 17:00:00,
2013-08-26 13:10:00,88.6,75.8,30.11,NE,44,5.0,12.0,66,0.00,,,0.00,Wunderground v.1.15,2013-08-26 17:10:00,
2013-08-26 13:20:00,88.8,76.0,30.11,NNW,332,6.0,6.0,66,0.00,,,0.00,Wunderground v.1.15,2013-08-26 17:20:00,
2013-08-26 13:30:00,87.3,76.3,30.11,NE,46,4.0,4.0,70,0.00,,,0.00,Wunderground v.1.15,2013-08-26 17:30:00,
2013-08-26 13:40:00,87.7,75.4,30.11,NE,44,5.0,5.0,67,0.00,,,0.00,Wunderground v.1.15,2013-08-26 17:40:00,
2013-08-26 13:50:00,88.4,75.1,30.10,NE,51,6.0,7.0,65,0.00,,,0.00,Wunderground v.1.15,2013-08-26 17:50:00,
2013-08-26 14:00:00,88.9,75.6,30.10,ENE,65,7.0,7.0,65,0.00,,,0.00,Wunderground v.1.15,2013-08-26 18:00:00,
2013-08-26 14:10:00,88.4,76.9,30.10,North,8,5.0,12.0,69,0.00,,,0.00,Wunderground v.1.15,2013-08-26 18:10:00,
2013-08-26 14:20:00,89.0,77.1,30.09,North,4,4.0,12.0,68,0.00,,,0.00,Wunderground v.1.15,2013-08-26 18:20:00,
2013-08-26 14:30:00,83.7,76.5,30.09,NE,36,4.0,4.0,79,0.18,,,0.07,Wunderground v.1.15,2013-08-26 18:30:00,
2013-08-26 14:35:00,82.8,76.7,30.09,NE,37,3.0,4.0,82,0.07,,,0.07,Wunderground v.1.15,2013-08-26 18:35:00,
2013-08-26 14:45:00,84.1,77.3,30.09,North,354,5.0,6.0,80,0.00,,,0.07,Wunderground v.1.15,2013-08-26 18:45:00,
2013-08-26 14:54:00,85.7,78.0,30.08,NNW,340,6.0,6.0,78,0.00,,,0.07,Wunderground v.1.15,2013-08-26 18:54:00,
2013-08-26 15:00:00,86.4,77.1,30.08,NE,36,5.0,5.0,74,0.00,,,0.07,Wunderground v.1.15,2013-08-26 19:00:00,
2013-08-26 15:10:00,87.5,78.6,30.08,NNE,24,4.0,12.0,75,0.00,,,0.07,Wunderground v.1.15,2013-08-26 19:10:00,
2013-08-26 15:20:00,88.0,76.5,30.07,ENE,63,5.0,12.0,69,0.00,,,0.07,Wunderground v.1.15,2013-08-26 19:20:00,
2013-08-26 15:30:00,87.5,76.5,30.07,NNE,13,5.0,5.0,70,0.00,,,0.07,Wunderground v.1.15,2013-08-26 19:30:00,
2013-08-26 15:40:00,87.5,76.5,30.06,NE,51,5.0,5.0,70,0.00,,,0.07,Wunderground v.1.15,2013-08-26 19:40:00,
2013-08-26 15:50:00,85.7,76.0,30.07,ENE,72,7.0,7.0,73,0.00,,,0.07,Wunderground v.1.15,2013-08-26 19:50:00,
2013-08-26 15:59:00,85.1,75.9,30.06,ENE,76,5.0,6.0,74,0.00,,,0.07,Wunderground v.1.15,2013-08-26 19:59:00,
2013-08-26 16:05:00,86.4,76.7,30.06,NE,51,5.0,8.0,73,0.00,,,0.07,Wunderground v.1.15,2013-08-26 20:05:00,
2013-08-26 16:15:00,88.0,75.7,30.06,ENE,74,6.0,12.0,67,0.00,,,0.07,Wunderground v.1.15,2013-08-26 20:15:00,
2013-08-26 16:25:00,87.5,76.1,30.05,ENE,58,5.0,12.0,69,0.00,,,0.07,Wunderground v.1.15,2013-08-26 20:25:00,
2013-08-26 16:35:00,87.8,76.4,30.05,ENE,65,5.0,5.0,69,0.00,,,0.07,Wunderground v.1.15,2013-08-26 20:35:00,
2013-08-26 16:45:00,88.7,76.3,30.05,NNE,23,4.0,4.0,67,0.00,,,0.07,Wunderground v.1.15,2013-08-26 20:45:00,
2013-08-26 16:55:00,84.3,75.5,30.06,ENE,63,8.0,16.0,75,0.00,,,0.07,Wunderground v.1.15,2013-08-26 20:55:00,
2013-08-26 17:05:00,79.7,73.7,30.05,East,99,7.0,12.0,82,0.00,,,0.07,Wunderground v.1.15,2013-08-26 21:05:00,
2013-08-26 17:15:00,79.7,75.1,30.05,NE,43,2.0,12.0,86,0.00,,,0.07,Wunderground v.1.15,2013-08-26 21:15:00,
2013-08-26 17:25:00,80.8,74.8,30.04,NE,52,2.0,12.0,82,0.00,,,0.07,Wunderground v.1.15,2013-08-26 21:25:00,
2013-08-26 17:30:00,81.3,75.3,30.05,East,79,2.0,2.0,82,0.00,,,0.07,Wunderground v.1.15,2013-08-26 21:30:00,
2013-08-26 17:40:00,82.8,76.7,30.05,NNE,32,1.0,1.0,82,0.00,,,0.07,Wunderground v.1.15,2013-08-26 21:40:00,
2013-08-26 17:49:00,80.0,74.7,30.05,NNE,32,5.0,6.0,84,0.22,,,0.10,Wunderground v.1.15,2013-08-26 21:49:00,
2013-08-26 17:55:00,78.8,74.9,30.05,North,8,5.0,6.0,88,0.17,,,0.12,Wunderground v.1.15,2013-08-26 21:55:00,
2013-08-26 18:05:00,78.4,74.9,30.04,NE,36,4.0,16.0,89,0.05,,,0.12,Wunderground v.1.15,2013-08-26 22:05:00,
2013-08-26 18:15:00,78.3,74.8,30.04,NE,43,4.0,16.0,89,0.00,,,0.12,Wunderground v.1.15,2013-08-26 22:15:00,
2013-08-26 18:25:00,78.7,74.8,30.05,NE,51,4.0,16.0,88,0.00,,,0.12,Wunderground v.1.15,2013-08-26 22:25:00,
2013-08-26 18:35:00,79.3,75.1,30.05,NNE,30,4.0,6.0,87,0.00,,,0.12,Wunderground v.1.15,2013-08-26 22:35:00,
2013-08-26 18:45:00,79.2,75.0,30.05,ENE,57,3.0,4.0,87,0.00,,,0.12,Wunderground v.1.15,2013-08-26 22:45:00,
2013-08-26 18:55:00,79.5,75.3,30.05,NE,53,3.0,4.0,87,0.00,,,0.12,Wunderground v.1.15,2013-08-26 22:55:00,
2013-08-26 19:00:00,79.6,75.0,30.05,NE,36,4.0,4.0,86,0.00,,,0.12,Wunderground v.1.15,2013-08-26 23:00:00,
2013-08-26 19:10:00,79.4,74.5,30.05,NE,45,5.0,5.0,85,0.00,,,0.12,Wunderground v.1.15,2013-08-26 23:10:00,
2013-08-26 19:19:00,79.2,74.6,30.05,NNE,33,3.0,3.0,86,0.00,,,0.12,Wunderground v.1.15,2013-08-26 23:19:00,
2013-08-26 19:25:00,79.2,74.6,30.05,NE,44,2.0,3.0,86,0.00,,,0.12,Wunderground v.1.15,2013-08-26 23:25:00,
2013-08-26 19:35:00,79.0,74.8,30.05,NE,36,2.0,2.0,87,0.00,,,0.12,Wunderground v.1.15,2013-08-26 23:35:00,
2013-08-26 19:45:00,78.6,74.7,30.05,ENE,65,2.0,2.0,88,0.00,,,0.12,Wunderground v.1.15,2013-08-26 23:45:00,
2013-08-26 19:55:00,78.2,74.7,30.06,NE,36,1.0,1.0,89,0.00,,,0.12,Wunderground v.1.15,2013-08-26 23:55:00,
2013-08-26 20:05:00,78.0,74.8,30.06,NNE,32,1.0,11.0,90,0.00,,,0.12,Wunderground v.1.15,2013-08-27 00:05:00,
2013-08-26 20:15:00,77.9,74.7,30.07,ENE,69,1.0,11.0,90,0.00,,,0.12,Wunderground v.1.15,2013-08-27 00:15:00,
2013-08-26 20:25:00,77.9,74.7,30.07,ENE,58,2.0,11.0,90,0.00,,,0.12,Wunderground v.1.15,2013-08-27 00:25:00,
2013-08-26 20:35:00,77.8,74.6,30.07,NE,56,2.0,3.0,90,0.00,,,0.12,Wunderground v.1.15,2013-08-27 00:35:00,
2013-08-26 20:45:00,77.7,74.9,30.07,ENE,70,2.0,3.0,91,0.00,,,0.12,Wunderground v.1.15,2013-08-27 00:45:00,
2013-08-26 20:55:00,77.5,74.7,30.07,ENE,69,2.0,3.0,91,0.00,,,0.12,Wunderground v.1.15,2013-08-27 00:55:00,
2013-08-26 21:05:00,77.3,74.5,30.08,ESE,102,1.0,6.0,91,0.00,,,0.12,Wunderground v.1.15,2013-08-27 01:05:00,
2013-08-26 21:15:00,77.0,74.5,30.08,NE,46,0.0,6.0,92,0.00,,,0.12,Wunderground v.1.15,2013-08-27 01:15:00,
2013-08-26 21:25:00,76.7,74.5,30.08,NNE,19,0.0,6.0,93,0.00,,,0.12,Wunderground v.1.15,2013-08-27 01:25:00,
2013-08-26 21:35:00,76.6,74.4,30.08,NE,49,0.0,0.0,93,0.00,,,0.12,Wunderground v.1.15,2013-08-27 01:35:00,
2013-08-26 21:45:00,76.3,74.4,30.09,NE,49,0.0,0.0,94,0.00,,,0.12,Wunderground v.1.15,2013-08-27 01:45:00,
2013-08-26 21:54:00,76.0,74.1,30.09,NE,49,0.0,0.0,94,0.00,,,0.12,Wunderground v.1.15,2013-08-27 01:54:00,
2013-08-26 22:00:00,76.0,74.5,30.09,North,9,0.0,0.0,95,0.00,,,0.12,Wunderground v.1.15,2013-08-27 02:00:00,
2013-08-26 22:10:00,75.9,74.4,30.09,North,8,0.0,5.0,95,0.00,,,0.12,Wunderground v.1.15,2013-08-27 02:10:00,
2013-08-26 22:20:00,75.9,74.4,30.09,NNE,31,0.0,5.0,95,0.00,,,0.12,Wunderground v.1.15,2013-08-27 02:20:00,
2013-08-26 22:25:00,76.0,74.5,30.09,NE,55,0.0,5.0,95,0.00,,,0.12,Wunderground v.1.15,2013-08-27 02:25:00,
2013-08-26 22:35:00,75.9,74.0,30.09,NNE,18,0.0,1.0,94,0.00,,,0.12,Wunderground v.1.15,2013-08-27 02:35:00,
2013-08-26 22:45:00,75.7,73.8,30.09,North,8,0.0,0.0,94,0.00,,,0.12,Wunderground v.1.15,2013-08-27 02:45:00,
2013-08-26 22:55:00,75.6,73.8,30.09,NNE,30,0.0,0.0,94,0.00,,,0.12,Wunderground v.1.15,2013-08-27 02:55:00,
2013-08-26 23:05:00,75.8,74.3,30.10,ENE,63,0.0,1.0,95,0.00,,,0.12,Wunderground v.1.15,2013-08-27 03:05:00,
2013-08-26 23:15:00,75.8,74.3,30.10,NE,49,1.0,2.0,95,0.00,,,0.12,Wunderground v.1.15,2013-08-27 03:15:00,
2013-08-26 23:24:00,75.7,73.8,30.10,NE,41,1.0,1.0,94,0.00,,,0.12,Wunderground v.1.15,2013-08-27 03:24:00,
2013-08-26 23:30:00,75.7,73.8,30.09,NNE,16,2.0,2.0,94,0.00,,,0.12,Wunderground v.1.15,2013-08-27 03:30:00,
2013-08-26 23:40:00,75.8,73.9,30.10,ENE,57,3.0,3.0,94,0.00,,,0.12,Wunderground v.1.15,2013-08-27 03:40:00,
2013-08-26 23:50:00,75.7,73.5,30.09,NE,47,4.0,4.0,93,0.00,,,0.12,Wunderground v.1.15,2013-08-27 03:50:00,